createdAt,value
2023-02-18T00:02:18.590Z,10.64
2023-02-18T00:05:07.249Z,10.64
2023-02-18T00:07:54.761Z,10.63
2023-02-18T00:10:43.993Z,10.63
2023-02-18T00:13:31.351Z,10.63
2023-02-18T00:16:18.712Z,10.63
2023-02-18T00:19:09.369Z,10.66
2023-02-18T00:21:56.708Z,10.61
2023-02-18T00:24:44.339Z,10.62
2023-02-18T00:27:33.025Z,10.62
2023-02-18T00:30:20.780Z,10.63
2023-02-18T00:33:08.363Z,10.61
2023-02-18T00:36:04.319Z,10.66
2023-02-18T00:38:54.739Z,10.64
2023-02-18T00:41:43.499Z,10.63
2023-02-18T00:44:32.556Z,10.64
2023-02-18T00:47:20.270Z,10.61
2023-02-18T00:50:09.773Z,10.60
2023-02-18T00:52:57.190Z,10.61
2023-02-18T00:55:47.942Z,10.61
2023-02-18T00:58:36.342Z,10.62
2023-02-18T01:01:25.297Z,10.62
2023-02-18T01:04:13.294Z,10.60
2023-02-18T01:07:00.946Z,10.60
2023-02-18T01:09:48.587Z,10.61
2023-02-18T01:12:35.977Z,10.61
2023-02-18T01:15:24.746Z,10.60
2023-02-18T01:18:14.603Z,10.60
2023-02-18T01:21:02.564Z,10.60
2023-02-18T01:23:50.246Z,10.61
2023-02-18T01:26:37.710Z,10.60
2023-02-18T01:29:25.175Z,10.60
2023-02-18T01:32:12.813Z,10.61
2023-02-18T01:35:03.922Z,10.60
2023-02-18T01:37:52.435Z,10.57
2023-02-18T01:40:51.294Z,10.56
2023-02-18T01:43:39.697Z,10.57
2023-02-18T01:46:27.197Z,10.52
2023-02-18T01:49:19.303Z,10.53
2023-02-18T01:52:15.364Z,10.50
2023-02-18T01:55:02.903Z,10.46
2023-02-18T01:57:50.294Z,10.43
2023-02-18T02:00:37.965Z,10.42
2023-02-18T02:03:25.413Z,10.40
2023-02-18T02:06:19.672Z,10.39
2023-02-18T02:09:14.570Z,10.39
2023-02-18T02:12:37.342Z,10.35
2023-02-18T02:15:35.890Z,10.32
2023-02-18T02:18:45.266Z,10.30
2023-02-18T02:22:11.086Z,10.28
2023-02-18T02:25:27.855Z,10.25
2023-02-18T02:29:02.305Z,10.26
2023-02-18T02:32:21.396Z,10.21
2023-02-18T02:35:14.451Z,10.22
2023-02-18T02:38:07.466Z,10.20
2023-02-18T02:41:01.426Z,10.19
2023-02-18T02:44:10.095Z,10.16
2023-02-18T02:47:09.172Z,10.15
2023-02-18T02:50:04.605Z,10.15
2023-02-18T02:53:01.155Z,10.14
2023-02-18T02:55:49.046Z,10.14
2023-02-18T02:58:36.368Z,10.11
2023-02-18T03:01:39.260Z,10.11
2023-02-18T03:05:08.588Z,10.11
2023-02-18T03:08:32.010Z,10.11
2023-02-18T03:11:19.956Z,10.10
2023-02-18T03:14:15.240Z,10.13
2023-02-18T03:17:09.015Z,10.13
2023-02-18T03:20:09.328Z,10.16
2023-02-18T03:23:01.194Z,10.17
2023-02-18T03:25:49.864Z,10.17
2023-02-18T03:28:39.815Z,10.14
2023-02-18T03:31:31.923Z,10.17
2023-02-18T03:34:27.478Z,10.14
2023-02-18T03:37:16.718Z,10.20
2023-02-18T03:40:09.281Z,10.19
2023-02-18T03:42:58.644Z,10.15
2023-02-18T03:45:46.441Z,10.16
2023-02-18T03:48:33.934Z,10.22
2023-02-18T03:51:21.770Z,10.22
2023-02-18T03:54:10.010Z,10.18
2023-02-18T03:56:59.004Z,10.18
2023-02-18T03:59:46.852Z,10.15
2023-02-18T04:02:34.419Z,10.16
2023-02-18T04:05:22.386Z,10.17
2023-02-18T04:08:10.224Z,10.18
2023-02-18T04:10:58.034Z,10.16
2023-02-18T04:13:47.241Z,10.15
2023-02-18T04:16:34.954Z,10.15
2023-02-18T04:19:22.937Z,10.14
2023-02-18T04:22:10.388Z,10.16
2023-02-18T04:24:57.813Z,10.14
2023-02-18T04:27:45.474Z,10.12
2023-02-18T04:30:34.973Z,10.11
2023-02-18T04:33:22.729Z,10.12
2023-02-18T04:36:10.998Z,10.11
2023-02-18T04:38:59.266Z,10.11
2023-02-18T04:41:46.746Z,10.10
2023-02-18T04:44:34.145Z,10.11
2023-02-18T04:47:23.130Z,10.13
2023-02-18T04:50:12.025Z,10.13
2023-02-18T04:52:59.898Z,10.12
2023-02-18T04:55:52.108Z,10.12
2023-02-18T04:58:39.684Z,10.15
2023-02-18T05:01:27.238Z,10.16
2023-02-18T05:04:17.458Z,10.12
2023-02-18T05:07:04.918Z,10.09
2023-02-18T05:09:52.807Z,10.08
2023-02-18T05:12:40.442Z,10.06
2023-02-18T05:15:28.407Z,10.06
2023-02-18T05:18:16.136Z,10.04
2023-02-18T05:21:05.323Z,10.02
2023-02-18T05:23:52.795Z,10.00
2023-02-18T05:26:40.324Z,9.97
2023-02-18T05:29:28.043Z,10.00
2023-02-18T05:32:15.658Z,9.98
2023-02-18T05:35:06.331Z,9.97
2023-02-18T05:37:55.365Z,9.95
2023-02-18T05:40:43.092Z,9.93
2023-02-18T05:43:30.518Z,9.94
2023-02-18T05:46:17.922Z,9.90
2023-02-18T05:49:05.368Z,9.88
2023-02-18T05:51:52.995Z,9.89
2023-02-18T05:54:42.231Z,9.87
2023-02-18T05:57:29.986Z,9.89
2023-02-18T06:00:18.665Z,9.88
2023-02-18T06:03:06.637Z,9.86
2023-02-18T06:05:54.658Z,9.84
2023-02-18T06:08:42.428Z,9.85
2023-02-18T06:11:31.529Z,9.85
2023-02-18T06:14:21.306Z,9.84
2023-02-18T06:17:08.963Z,9.84
2023-02-18T06:19:56.818Z,9.82
2023-02-18T06:22:44.268Z,9.81
2023-02-18T06:25:31.741Z,9.81
2023-02-18T06:28:20.670Z,9.82
2023-02-18T06:31:08.472Z,9.85
2023-02-18T06:33:56.232Z,9.83
2023-02-18T06:36:43.660Z,9.81
2023-02-18T06:39:31.210Z,9.83
2023-02-18T06:42:18.728Z,9.85
2023-02-18T06:45:08.095Z,9.85
2023-02-18T06:47:55.463Z,9.85
2023-02-18T06:50:43.187Z,9.83
2023-02-18T06:53:30.874Z,9.87
2023-02-18T06:56:19.089Z,9.88
2023-02-18T06:59:08.273Z,9.87
2023-02-18T07:01:57.408Z,9.90
2023-02-18T07:04:45.582Z,9.88
2023-02-18T07:07:33.190Z,9.89
2023-02-18T07:10:20.958Z,9.92
2023-02-18T07:13:08.454Z,9.94
2023-02-18T07:15:55.886Z,9.91
2023-02-18T07:18:44.488Z,9.91
2023-02-18T07:21:32.170Z,9.89
2023-02-18T07:24:19.646Z,9.91
2023-02-18T07:27:07.136Z,9.90
2023-02-18T07:29:55.262Z,9.91
2023-02-18T07:32:43.543Z,9.89
2023-02-18T07:35:32.605Z,9.89
2023-02-18T07:38:20.256Z,9.89
2023-02-18T07:41:07.673Z,9.89
2023-02-18T07:43:55.217Z,9.89
2023-02-18T07:46:43.955Z,9.91
2023-02-18T07:49:32.088Z,9.92
2023-02-18T07:52:20.753Z,9.93
2023-02-18T07:55:09.661Z,9.97
2023-02-18T07:58:02.199Z,9.98
2023-02-18T08:00:50.775Z,10.03
2023-02-18T08:03:39.419Z,10.06
2023-02-18T08:06:32.447Z,10.07
2023-02-18T08:09:21.484Z,10.13
2023-02-18T08:12:10.134Z,10.13
2023-02-18T08:14:57.479Z,10.19
2023-02-18T08:17:44.957Z,10.25
2023-02-18T08:20:32.588Z,10.31
2023-02-18T08:23:22.705Z,10.36
2023-02-18T08:26:12.123Z,10.38
2023-02-18T08:28:59.700Z,10.46
2023-02-18T08:31:47.255Z,10.53
2023-02-18T08:34:35.169Z,10.61
2023-02-18T08:37:23.846Z,10.66
2023-02-18T08:40:13.371Z,10.67
2023-02-18T08:43:02.285Z,10.77
2023-02-18T08:45:49.916Z,10.82
2023-02-18T08:48:37.375Z,10.89
2023-02-18T08:51:26.193Z,10.89
2023-02-18T08:54:14.171Z,10.95
2023-02-18T08:57:02.920Z,11.02
2023-02-18T08:59:51.924Z,11.05
2023-02-18T09:02:40.490Z,11.12
2023-02-18T09:05:28.404Z,11.14
2023-02-18T09:08:16.074Z,11.20
2023-02-18T09:11:06.044Z,11.29
2023-02-18T09:13:53.578Z,11.36
2023-02-18T09:16:44.045Z,11.43
2023-02-18T09:19:31.908Z,11.48
2023-02-18T09:22:19.816Z,11.52
2023-02-18T09:25:09.053Z,11.56
2023-02-18T09:27:56.583Z,11.61
2023-02-18T09:30:43.965Z,11.63
2023-02-18T09:33:32.759Z,11.68
2023-02-18T09:36:21.560Z,11.71
2023-02-18T09:39:09.297Z,11.72
2023-02-18T09:41:59.641Z,11.74
2023-02-18T09:44:53.886Z,11.78
2023-02-18T09:47:44.286Z,11.80
2023-02-18T09:50:35.168Z,11.83
2023-02-18T09:53:24.636Z,11.83
2023-02-18T09:56:17.077Z,11.83
2023-02-18T09:59:10.048Z,11.86
2023-02-18T10:01:58.206Z,11.92
2023-02-18T10:04:50.912Z,11.93
2023-02-18T10:07:41.576Z,11.94
2023-02-18T10:10:40.731Z,11.98
2023-02-18T10:13:31.958Z,12.03
2023-02-18T10:16:22.157Z,12.08
2023-02-18T10:19:22.668Z,12.09
2023-02-18T10:22:14.996Z,12.13
2023-02-18T10:25:07.955Z,12.18
2023-02-18T10:27:57.803Z,12.23
2023-02-18T10:30:52.385Z,12.29
2023-02-18T10:33:48.143Z,12.38
2023-02-18T10:36:44.531Z,12.49
2023-02-18T10:39:49.113Z,12.54
2023-02-18T10:42:47.768Z,12.60
2023-02-18T10:45:47.503Z,12.72
2023-02-18T10:49:02.843Z,12.85
2023-02-18T10:51:56.356Z,12.97
2023-02-18T10:54:54.943Z,13.10
2023-02-18T10:57:51.175Z,13.09
2023-02-18T11:00:41.371Z,13.17
2023-02-18T11:03:42.806Z,13.23
2023-02-18T11:06:39.210Z,13.21
2023-02-18T11:09:36.035Z,13.26
2023-02-18T11:12:28.463Z,13.26
2023-02-18T11:15:24.341Z,13.19
2023-02-18T11:18:30.178Z,13.24
2023-02-18T11:21:30.073Z,13.29
2023-02-18T11:24:21.074Z,13.19
2023-02-18T11:27:14.484Z,13.22
2023-02-18T11:30:09.054Z,13.24
2023-02-18T11:33:07.437Z,13.23
2023-02-18T11:35:58.533Z,13.22
2023-02-18T11:38:50.805Z,13.29
2023-02-18T11:41:43.644Z,13.28
2023-02-18T11:44:36.055Z,13.41
2023-02-18T11:47:28.488Z,13.40
2023-02-18T11:50:23.837Z,13.49
2023-02-18T11:53:30.515Z,13.59
2023-02-18T11:56:20.332Z,13.67
2023-02-18T11:59:11.586Z,13.70
2023-02-18T12:02:14.447Z,13.70
2023-02-18T12:05:11.318Z,13.80
2023-02-18T12:08:07.545Z,13.59
2023-02-18T12:11:02.752Z,13.67
2023-02-18T12:13:56.039Z,13.67
2023-02-18T12:17:03.998Z,13.69
2023-02-18T12:20:28.725Z,13.62
2023-02-18T12:23:28.149Z,13.60
2023-02-18T12:26:28.690Z,13.56
2023-02-18T12:29:43.025Z,13.57
2023-02-18T12:32:48.013Z,13.48
2023-02-18T12:35:55.910Z,13.56
2023-02-18T12:39:13.090Z,13.50
2023-02-18T12:42:40.285Z,13.46
2023-02-18T12:46:03.020Z,13.40
2023-02-18T12:49:15.839Z,13.32
2023-02-18T12:52:23.063Z,13.37
2023-02-18T12:55:45.752Z,13.29
2023-02-18T12:58:56.026Z,13.20
2023-02-18T13:01:55.959Z,13.11
2023-02-18T13:04:59.784Z,13.09
2023-02-18T13:08:13.443Z,13.00
2023-02-18T13:11:27.866Z,12.98
2023-02-18T13:14:23.089Z,12.97
2023-02-18T13:17:16.394Z,12.93
2023-02-18T13:20:15.552Z,12.92
2023-02-18T13:23:04.658Z,12.87
2023-02-18T13:26:01.317Z,12.86
2023-02-18T13:29:04.299Z,12.82
2023-02-18T13:32:10.730Z,12.79
2023-02-18T13:35:11.355Z,12.78
2023-02-18T13:38:24.253Z,12.75
2023-02-18T13:41:12.326Z,12.77
2023-02-18T13:44:01.273Z,12.68
2023-02-18T13:46:55.023Z,12.66
2023-02-18T13:49:42.829Z,12.67
2023-02-18T13:52:30.359Z,12.67
2023-02-18T13:55:24.022Z,12.66
2023-02-18T13:58:20.698Z,12.59
2023-02-18T14:01:22.608Z,12.60
2023-02-18T14:04:54.315Z,12.59
2023-02-18T14:08:04.350Z,12.53
2023-02-18T14:11:40.385Z,12.57
2023-02-18T14:14:46.675Z,12.58
2023-02-18T14:17:43.923Z,12.59
2023-02-18T14:20:51.319Z,12.56
2023-02-18T14:24:00.464Z,12.53
2023-02-18T14:26:50.540Z,12.51
2023-02-18T14:29:38.441Z,12.51
2023-02-18T14:32:26.730Z,12.52
2023-02-18T14:35:36.040Z,12.46
2023-02-18T14:38:49.340Z,12.47
2023-02-18T14:41:49.248Z,12.47
2023-02-18T14:45:14.691Z,12.45
2023-02-18T14:48:37.414Z,12.35
2023-02-18T14:51:30.529Z,12.31
2023-02-18T14:54:21.962Z,12.24
2023-02-18T14:57:17.579Z,12.17
2023-02-18T15:00:07.586Z,12.13
2023-02-18T15:02:56.715Z,12.09
2023-02-18T15:05:46.434Z,12.06
2023-02-18T15:08:40.927Z,12.03
2023-02-18T15:11:38.515Z,12.00
2023-02-18T15:14:30.677Z,11.98
2023-02-18T15:17:23.599Z,11.93
2023-02-18T15:20:15.172Z,11.92
2023-02-18T15:23:03.357Z,11.92
2023-02-18T15:25:55.329Z,11.87
2023-02-18T15:28:55.531Z,11.88
2023-02-18T15:31:43.171Z,11.83
2023-02-18T15:34:38.637Z,11.79
2023-02-18T15:37:26.998Z,11.74
2023-02-18T15:40:16.026Z,11.76
2023-02-18T15:43:07.578Z,11.75
2023-02-18T15:45:58.949Z,11.70
2023-02-18T15:48:51.221Z,11.70
2023-02-18T15:51:38.720Z,11.67
2023-02-18T15:54:26.750Z,11.65
2023-02-18T15:57:17.983Z,11.64
2023-02-18T16:00:17.275Z,11.61
2023-02-18T16:03:14.231Z,11.60
2023-02-18T16:06:18.957Z,11.60
2023-02-18T16:09:17.624Z,11.60
2023-02-18T16:12:22.702Z,11.56
2023-02-18T16:15:22.121Z,11.55
2023-02-18T16:18:40.441Z,11.48
2023-02-18T16:21:34.444Z,11.47
2023-02-18T16:24:28.096Z,11.45
2023-02-18T16:27:17.764Z,11.40
2023-02-18T16:30:18.678Z,11.37
2023-02-18T16:33:06.334Z,11.31
2023-02-18T16:35:56.168Z,11.28
2023-02-18T16:38:45.873Z,11.22
2023-02-18T16:41:33.253Z,11.20
2023-02-18T16:44:20.611Z,11.18
2023-02-18T16:47:16.260Z,11.12
2023-02-18T16:50:04.137Z,11.11
2023-02-18T16:52:51.854Z,11.07
2023-02-18T16:55:41.945Z,11.02
2023-02-18T16:58:29.886Z,10.98
2023-02-18T17:01:28.730Z,10.93
2023-02-18T17:04:20.038Z,10.85
2023-02-18T17:07:12.139Z,10.83
2023-02-18T17:10:00.761Z,10.79
2023-02-18T17:12:48.703Z,10.76
2023-02-18T17:15:37.906Z,10.72
2023-02-18T17:18:26.418Z,10.68
2023-02-18T17:21:17.985Z,10.66
2023-02-18T17:24:06.473Z,10.63
2023-02-18T17:26:53.927Z,10.62
2023-02-18T17:29:41.415Z,10.59
2023-02-18T17:32:29.285Z,10.56
2023-02-18T17:35:19.925Z,10.53
2023-02-18T17:38:12.464Z,10.49
2023-02-18T17:40:59.911Z,10.47
2023-02-18T17:43:47.376Z,10.46
2023-02-18T17:46:34.847Z,10.43
2023-02-18T17:49:23.351Z,10.40
2023-02-18T17:52:30.734Z,10.38
2023-02-18T17:55:23.634Z,10.34
2023-02-18T17:58:12.314Z,10.30
2023-02-18T18:01:00.226Z,10.27
2023-02-18T18:03:48.107Z,10.23
2023-02-18T18:06:36.335Z,10.22
2023-02-18T18:09:24.459Z,10.19
2023-02-18T18:12:16.896Z,10.18
2023-02-18T18:15:17.103Z,10.14
2023-02-18T18:18:05.586Z,10.11
2023-02-18T18:20:57.068Z,10.11
2023-02-18T18:23:44.546Z,10.08
2023-02-18T18:26:32.167Z,10.06
2023-02-18T18:29:21.125Z,10.03
2023-02-18T18:32:09.859Z,10.03
2023-02-18T18:34:57.244Z,10.03
2023-02-18T18:37:45.267Z,10.01
2023-02-18T18:40:34.554Z,10.00
2023-02-18T18:43:24.997Z,9.97
2023-02-18T18:46:14.018Z,9.97
2023-02-18T18:49:01.628Z,9.96
2023-02-18T18:51:49.203Z,9.94
2023-02-18T18:54:36.911Z,9.93
2023-02-18T18:57:24.239Z,9.90
2023-02-18T19:00:13.547Z,9.91
2023-02-18T19:03:04.126Z,9.91
2023-02-18T19:05:52.913Z,9.87
2023-02-18T19:08:40.691Z,9.86
2023-02-18T19:11:28.249Z,9.85
2023-02-18T19:14:15.696Z,9.85
2023-02-18T19:17:05.040Z,9.83
2023-02-18T19:19:54.377Z,9.81
2023-02-18T19:22:42.287Z,9.83
2023-02-18T19:25:30.097Z,9.80
2023-02-18T19:28:20.525Z,9.79
2023-02-18T19:31:12.159Z,9.77
2023-02-18T19:33:59.723Z,9.75
2023-02-18T19:36:48.608Z,9.76
2023-02-18T19:39:36.912Z,9.76
2023-02-18T19:42:24.319Z,9.74
2023-02-18T19:45:12.520Z,9.73
2023-02-18T19:48:02.130Z,9.74
2023-02-18T19:50:49.793Z,9.75
2023-02-18T19:53:38.681Z,9.71
2023-02-18T19:56:26.362Z,9.72
2023-02-18T19:59:13.844Z,9.71
2023-02-18T20:02:01.548Z,9.71
2023-02-18T20:04:49.783Z,9.71
2023-02-18T20:07:37.729Z,9.70
2023-02-18T20:10:27.045Z,9.71
2023-02-18T20:13:14.352Z,9.68
2023-02-18T20:16:01.760Z,9.68
2023-02-18T20:18:49.163Z,9.67
2023-02-18T20:21:36.727Z,9.67
2023-02-18T20:24:24.530Z,9.66
2023-02-18T20:27:13.330Z,9.65
2023-02-18T20:30:01.217Z,9.64
2023-02-18T20:32:49.124Z,9.65
2023-02-18T20:35:36.567Z,9.65
2023-02-18T20:38:23.907Z,9.63
2023-02-18T20:41:14.814Z,9.63
2023-02-18T20:44:04.774Z,9.61
2023-02-18T20:46:52.332Z,9.60
2023-02-18T20:49:40.493Z,9.60
2023-02-18T20:52:28.285Z,9.59
2023-02-18T20:55:15.978Z,9.57
2023-02-18T20:58:03.743Z,9.57
2023-02-18T21:00:59.032Z,9.58
2023-02-18T21:03:48.153Z,9.57
2023-02-18T21:06:35.387Z,9.56
2023-02-18T21:09:23.170Z,9.55
2023-02-18T21:12:11.060Z,9.54
2023-02-18T21:14:58.603Z,9.52
2023-02-18T21:17:47.387Z,9.52
2023-02-18T21:20:35.087Z,9.52
2023-02-18T21:23:22.508Z,9.50
2023-02-18T21:26:13.260Z,9.52
2023-02-18T21:29:05.308Z,9.51
2023-02-18T21:31:53.226Z,9.50
2023-02-18T21:34:42.383Z,9.49
2023-02-18T21:37:30.060Z,9.50
2023-02-18T21:40:17.896Z,9.46
2023-02-18T21:43:05.415Z,9.45
2023-02-18T21:45:52.833Z,9.46
2023-02-18T21:48:58.154Z,9.45
2023-02-18T21:52:00.538Z,9.44
2023-02-18T21:54:48.905Z,9.44
2023-02-18T21:57:37.109Z,9.42
2023-02-18T22:00:24.491Z,9.42
2023-02-18T22:03:11.958Z,9.40
2023-02-18T22:05:59.699Z,9.37
2023-02-18T22:08:48.749Z,9.38
2023-02-18T22:11:36.646Z,9.35
2023-02-18T22:14:24.304Z,9.33
2023-02-18T22:17:12.251Z,9.34
2023-02-18T22:19:59.508Z,9.32
2023-02-18T22:22:47.024Z,9.31
2023-02-18T22:25:36.840Z,9.27
2023-02-18T22:28:24.222Z,9.26
2023-02-18T22:31:13.800Z,9.24
2023-02-18T22:34:02.182Z,9.21
2023-02-18T22:36:50.464Z,9.18
2023-02-18T22:39:38.144Z,9.18
2023-02-18T22:42:27.131Z,9.14
2023-02-18T22:45:14.770Z,9.12
2023-02-18T22:48:02.583Z,9.11
2023-02-18T22:50:50.008Z,9.13
2023-02-18T22:53:38.358Z,9.13
2023-02-18T22:56:28.321Z,9.12
2023-02-18T22:59:20.788Z,9.11
2023-02-18T23:02:08.216Z,9.16
2023-02-18T23:04:55.635Z,9.14
2023-02-18T23:07:42.949Z,9.14
2023-02-18T23:10:30.430Z,9.13
2023-02-18T23:13:17.875Z,9.15
2023-02-18T23:16:12.064Z,9.16
2023-02-18T23:19:00.757Z,9.14
2023-02-18T23:21:48.218Z,9.15
2023-02-18T23:24:39.044Z,9.14
2023-02-18T23:27:26.906Z,9.14
2023-02-18T23:30:14.557Z,9.19
2023-02-18T23:33:03.322Z,9.17
2023-02-18T23:35:51.235Z,9.13
2023-02-18T23:38:38.598Z,9.17
2023-02-18T23:41:28.131Z,9.17
2023-02-18T23:44:19.453Z,9.17
2023-02-18T23:47:08.402Z,9.15
2023-02-18T23:49:57.285Z,9.14
2023-02-18T23:52:45.119Z,9.14
2023-02-18T23:55:32.377Z,9.11
2023-02-18T23:58:20.117Z,9.13
